Time;durP1;ratioP1;P1;durP2;ratioP2;P2;SDS_P1;SDS_P2;PMS_P1;PMS_P2;Temp;Humidity;BMP_temperature;BMP_pressure;BME280_temperature;BME280_humidity;BME280_pressure;Samples;Min_cycle;Max_cycle;Signal;HPM_P1;HPM_P2
2021/12/03 00:04:02;;;;;;;0.60;0.35;;;20.40;25.80;20.80;93183.00;;;;10295576;28;46632;-59
2021/12/03 00:09:05;;;;;;;0.95;0.32;;;20.40;25.80;20.80;93178.00;;;;10294778;28;45866;-57
2021/12/03 00:14:06;;;;;;;0.68;0.40;;;20.30;25.70;20.80;93187.00;;;;10320510;28;45499;-59
2021/12/03 00:19:07;;;;;;;0.40;0.20;;;20.30;25.70;20.80;93195.00;;;;10334802;28;45619;-60
2021/12/03 00:24:07;;;;;;;1.00;0.40;;;20.40;25.70;20.80;93191.00;;;;10335816;28;46409;-59
2021/12/03 00:29:09;;;;;;;0.95;0.35;;;20.30;25.60;20.80;93213.00;;;;10330789;28;45527;-61
2021/12/03 00:34:09;;;;;;;0.40;0.20;;;20.30;25.60;20.80;93219.00;;;;10350456;28;45197;-58
2021/12/03 00:39:10;;;;;;;0.40;0.35;;;20.30;25.60;20.80;93228.00;;;;10345391;28;45598;-57
2021/12/03 00:44:11;;;;;;;0.57;0.40;;;20.30;25.60;20.80;93226.00;;;;10289109;28;45590;-59
2021/12/03 00:49:12;;;;;;;1.10;0.40;;;20.30;25.60;20.80;93259.00;;;;10309289;28;45593;-58
2021/12/03 00:54:13;;;;;;;0.45;0.30;;;20.40;25.70;20.80;93272.00;;;;10311988;28;45439;-57
2021/12/03 00:59:14;;;;;;;0.50;0.22;;;20.30;25.60;20.80;93282.00;;;;10292759;28;46979;-58
2021/12/03 01:04:15;;;;;;;0.73;0.40;;;20.30;25.60;20.80;93276.00;;;;10289393;28;46205;-60
2021/12/03 01:09:16;;;;;;;0.40;0.38;;;20.30;25.60;20.80;93294.00;;;;10378084;22;46392;-64
2021/12/03 01:14:18;;;;;;;0.57;0.25;;;20.30;25.70;20.80;93278.00;;;;10422966;28;46871;-58
2021/12/03 01:19:20;;;;;;;1.75;0.50;;;20.30;25.70;20.80;93296.00;;;;10439471;28;46757;-58
2021/12/03 01:24:21;;;;;;;0.73;0.40;;;20.30;25.70;20.80;93308.00;;;;10422521;28;46358;-59
2021/12/03 01:29:23;;;;;;;0.30;0.20;;;20.30;25.60;20.80;93327.00;;;;10421215;28;45595;-59
2021/12/03 01:34:24;;;;;;;0.65;0.50;;;20.30;25.70;20.70;93317.00;;;;10405786;28;46843;-60
2021/12/03 01:39:25;;;;;;;1.35;0.45;;;20.30;25.70;20.70;93316.00;;;;10439346;28;46111;-60
2021/12/03 01:44:26;;;;;;;1.58;0.50;;;20.30;25.60;20.70;93332.00;;;;10392463;28;46568;-59
2021/12/03 01:49:27;;;;;;;0.43;0.40;;;20.20;25.60;20.70;93334.00;;;;10397714;28;45248;-61
2021/12/03 01:54:27;;;;;;;0.98;0.40;;;20.30;25.70;20.70;93333.00;;;;10398463;28;45196;-60
2021/12/03 01:59:28;;;;;;;1.10;0.65;;;20.20;25.60;20.70;93329.00;;;;10376880;28;45394;-58
2021/12/03 02:04:29;;;;;;;0.45;0.32;;;20.20;25.60;20.70;93341.00;;;;10376248;28;45327;-58
2021/12/03 02:09:30;;;;;;;0.80;0.40;;;20.20;25.60;20.70;93327.00;;;;10396658;28;45348;-61
2021/12/03 02:14:30;;;;;;;1.48;0.40;;;20.20;25.60;20.70;93325.00;;;;10397078;28;45338;-60
2021/12/03 02:19:33;;;;;;;1.00;0.40;;;20.20;25.50;20.70;93318.00;;;;10414886;28;45281;-61
2021/12/03 02:24:34;;;;;;;0.40;0.28;;;20.20;25.60;20.70;93331.00;;;;10419450;28;45499;-60
2021/12/03 02:29:35;;;;;;;0.50;0.30;;;20.20;25.50;20.70;93333.00;;;;10419155;28;45375;-60
2021/12/03 02:34:36;;;;;;;1.02;0.50;;;20.20;25.50;20.70;93341.00;;;;10419752;28;45652;-61
2021/12/03 02:39:37;;;;;;;1.20;0.40;;;20.20;25.50;20.70;93340.00;;;;10403005;28;47247;-61
2021/12/03 02:44:38;;;;;;;0.60;0.22;;;20.20;25.60;20.70;93342.00;;;;10420481;28;45217;-59
2021/12/03 02:49:41;;;;;;;0.98;0.45;;;20.20;25.50;20.70;93348.00;;;;10419221;28;45190;-61
2021/12/03 02:54:41;;;;;;;0.60;0.40;;;20.20;25.50;20.70;93345.00;;;;10419558;28;45223;-61
2021/12/03 02:59:42;;;;;;;0.70;0.30;;;20.20;25.50;20.70;93343.00;;;;10437474;28;45385;-60
2021/12/03 03:04:43;;;;;;;1.55;0.40;;;20.20;25.50;20.60;93340.00;;;;10436887;28;45549;-60
2021/12/03 03:09:44;;;;;;;0.77;0.38;;;20.20;25.50;20.60;93357.00;;;;10417588;28;45299;-60
2021/12/03 03:14:51;;;;;;;0.43;0.30;;;20.20;25.40;20.60;93358.00;;;;10418803;28;46405;-61
2021/12/03 03:19:53;;;;;;;0.30;0.20;;;20.20;25.40;20.60;93368.00;;;;10396351;28;45276;-60
2021/12/03 03:24:59;;;;;;;0.73;0.40;;;20.20;25.40;20.60;93367.00;;;;10360140;28;46932;-60
2021/12/03 03:30:00;;;;;;;0.65;0.22;;;20.20;25.40;20.60;93369.00;;;;10376954;28;45909;-58
2021/12/03 03:35:01;;;;;;;1.17;0.40;;;20.20;25.30;20.60;93380.00;;;;10394313;28;46431;-60
2021/12/03 03:40:03;;;;;;;0.70;0.40;;;20.20;25.30;20.60;93390.00;;;;10375827;28;45387;-60
2021/12/03 03:45:09;;;;;;;0.50;0.30;;;20.20;25.30;20.60;93392.00;;;;10376153;28;47120;-61
2021/12/03 03:50:14;;;;;;;0.80;0.40;;;20.20;25.20;20.60;93401.00;;;;10374563;28;47496;-60
2021/12/03 03:55:17;;;;;;;1.05;0.40;;;20.10;25.20;20.60;93396.00;;;;10375696;28;48413;-61
2021/12/03 04:00:23;;;;;;;0.70;0.40;;;20.20;25.10;20.60;93410.00;;;;10375906;28;45795;-59
2021/12/03 04:05:24;;;;;;;0.88;0.50;;;20.20;25.20;20.60;93404.00;;;;10375890;28;46312;-58
2021/12/03 04:10:25;;;;;;;1.00;0.32;;;20.20;25.10;20.60;93412.00;;;;10375017;28;45519;-60
2021/12/03 04:15:26;;;;;;;0.88;0.35;;;20.20;25.10;20.60;93434.00;;;;10393758;28;46823;-59
2021/12/03 04:20:27;;;;;;;0.73;0.32;;;20.20;25.10;20.60;93410.00;;;;10375347;28;45296;-59
2021/12/03 04:25:28;;;;;;;1.65;0.45;;;20.10;25.10;20.60;93421.00;;;;10375078;28;45631;-59
2021/12/03 04:30:31;;;;;;;0.40;0.32;;;20.20;25.10;20.60;93433.00;;;;10375400;28;46326;-60
2021/12/03 04:35:32;;;;;;;1.02;0.30;;;20.10;25.10;20.60;93425.00;;;;10358180;28;46881;-62
2021/12/03 04:40:36;;;;;;;0.55;0.30;;;20.10;25.00;20.60;93432.00;;;;10376959;28;45353;-59
2021/12/03 04:45:37;;;;;;;0.57;0.28;;;20.20;25.10;20.60;93441.00;;;;10399439;28;46685;-59
2021/12/03 04:50:41;;;;;;;1.15;0.30;;;20.10;25.10;20.60;93453.00;;;;10381689;28;45311;-60
2021/12/03 04:55:42;;;;;;;0.68;0.20;;;20.20;25.10;20.60;93446.00;;;;10380469;28;46732;-60
2021/12/03 05:00:53;;;;;;;0.82;0.30;;;20.20;25.10;20.60;93466.00;;;;10381462;28;46135;-59
2021/12/03 05:05:56;;;;;;;0.15;0.10;;;20.20;25.10;20.60;93456.00;;;;10381866;28;45300;-60
2021/12/03 05:10:58;;;;;;;0.35;0.25;;;20.20;25.10;20.60;93468.00;;;;10398787;28;46034;-60
2021/12/03 05:16:00;;;;;;;0.80;0.30;;;20.20;25.20;20.70;93470.00;;;;10414824;28;45588;-59
2021/12/03 05:21:03;;;;;;;0.40;0.20;;;20.20;25.10;20.70;93464.00;;;;10380942;28;45365;-59
2021/12/03 05:26:04;;;;;;;0.40;0.30;;;20.20;25.20;20.70;93471.00;;;;10380228;28;46571;-60
2021/12/03 05:31:04;;;;;;;1.55;0.50;;;20.20;25.10;20.80;93487.00;;;;10397787;28;46825;-60
2021/12/03 05:36:05;;;;;;;0.70;0.30;;;20.30;25.20;20.80;93496.00;;;;10379976;28;46497;-60
2021/12/03 05:41:06;;;;;;;0.60;0.35;;;20.30;25.10;20.80;93489.00;;;;10380051;28;46415;-61
2021/12/03 05:46:07;;;;;;;1.10;0.50;;;20.30;25.20;20.80;93490.00;;;;10379400;28;45403;-60
2021/12/03 05:51:09;;;;;;;1.15;0.60;;;20.30;25.10;20.80;93497.00;;;;10362215;28;46993;-60
2021/12/03 05:56:10;;;;;;;1.08;0.50;;;20.40;25.20;20.80;93510.00;;;;10396772;28;45235;-61
2021/12/03 06:01:11;;;;;;;0.70;0.50;;;20.40;25.10;20.90;93506.00;;;;10397220;28;45355;-59
2021/12/03 06:06:14;;;;;;;0.77;0.50;;;20.40;25.10;20.90;93520.00;;;;10379702;28;45196;-60
2021/12/03 06:11:15;;;;;;;0.60;0.40;;;20.40;25.10;20.90;93505.00;;;;10382206;28;45346;-60
2021/12/03 06:16:16;;;;;;;0.82;0.47;;;20.40;25.10;20.90;93534.00;;;;10393401;28;48187;-60
2021/12/03 06:21:18;;;;;;;1.20;0.40;;;20.40;25.60;20.90;93522.00;;;;10378050;28;48302;-60
2021/12/03 06:26:18;;;;;;;0.50;0.35;;;20.40;25.00;20.90;93523.00;;;;10395892;28;45533;-59
2021/12/03 06:31:19;;;;;;;1.00;0.52;;;20.50;25.00;20.90;93531.00;;;;10361706;28;47569;-60
2021/12/03 06:36:20;;;;;;;0.40;0.40;;;20.50;25.00;20.90;93546.00;;;;10390818;28;45463;-59
2021/12/03 06:41:20;;;;;;;0.77;0.40;;;20.50;25.00;21.00;93539.00;;;;10393810;28;46550;-59
2021/12/03 06:46:21;;;;;;;2.00;0.60;;;20.50;24.90;21.00;93539.00;;;;10391871;28;46378;-59
2021/12/03 06:51:22;;;;;;;0.43;0.30;;;20.50;24.90;21.00;93549.00;;;;10392831;28;46524;-59
2021/12/03 06:56:23;;;;;;;0.43;0.35;;;20.50;24.90;21.00;93538.00;;;;10395274;28;45342;-60
2021/12/03 07:01:24;;;;;;;0.95;0.50;;;20.50;25.40;21.00;93560.00;;;;10361033;28;48147;-60
2021/12/03 07:06:24;;;;;;;0.60;0.30;;;20.50;24.90;21.00;93553.00;;;;10375853;28;45385;-61
2021/12/03 07:11:25;;;;;;;1.20;0.50;;;20.50;24.80;21.00;93542.00;;;;10381746;28;45605;-60
2021/12/03 07:16:26;;;;;;;1.35;0.40;;;20.50;24.80;21.00;93557.00;;;;10407210;28;46047;-59
2021/12/03 07:21:27;;;;;;;0.98;0.60;;;20.50;24.70;20.90;93546.00;;;;10394656;28;46021;-59
2021/12/03 07:26:28;;;;;;;0.45;0.30;;;20.50;24.70;21.00;93565.00;;;;10394165;28;45258;-58
2021/12/03 07:31:29;;;;;;;0.57;0.40;;;20.50;24.60;20.90;93567.00;;;;10376555;28;45575;-58
2021/12/03 07:36:29;;;;;;;1.10;0.40;;;20.50;24.70;21.00;93568.00;;;;10376751;28;46326;-60
2021/12/03 07:41:30;;;;;;;0.93;0.40;;;20.50;24.60;21.00;93575.00;;;;10376034;28;46348;-61
2021/12/03 07:46:31;;;;;;;0.22;0.20;;;20.50;24.60;21.00;93579.00;;;;10394064;28;45188;-58
2021/12/03 07:51:32;;;;;;;0.75;0.40;;;20.50;24.50;21.00;93580.00;;;;10352248;28;45290;-59
2021/12/03 07:56:32;;;;;;;1.85;0.35;;;20.50;24.60;21.10;93596.00;;;;10351324;28;45296;-60
2021/12/03 08:01:33;;;;;;;1.20;0.40;;;20.60;24.60;21.10;93587.00;;;;10351064;28;46433;-61
2021/12/03 08:06:37;;;;;;;0.85;0.40;;;20.60;24.70;21.10;93608.00;;;;10365349;28;46286;-60
2021/12/03 08:11:39;;;;;;;0.85;0.40;;;20.60;24.70;21.10;93591.00;;;;10360736;28;47124;-61
2021/12/03 08:16:40;;;;;;;0.73;0.30;;;20.70;24.80;21.10;93595.00;;;;10363341;28;47570;-58
2021/12/03 08:21:40;;;;;;;0.40;0.32;;;20.60;24.70;21.10;93604.00;;;;10383818;28;46031;-61
2021/12/03 08:26:41;;;;;;;0.85;0.38;;;20.60;24.80;21.10;93617.00;;;;10401226;28;45441;-60
2021/12/03 08:31:42;;;;;;;1.17;0.45;;;20.60;24.80;21.10;93615.00;;;;10366840;28;48127;-60
2021/12/03 08:36:43;;;;;;;1.35;0.38;;;20.60;24.80;21.10;93596.00;;;;10400221;28;45323;-60
2021/12/03 08:41:44;;;;;;;0.35;0.30;;;20.60;24.90;21.10;93625.00;;;;10365764;28;47811;-61
2021/12/03 08:46:46;;;;;;;0.88;0.35;;;20.60;24.80;21.10;93612.00;;;;10381357;28;45265;-60
2021/12/03 08:51:53;;;;;;;2.35;0.35;;;20.60;25.40;21.10;93629.00;;;;10382209;28;46799;-61
2021/12/03 08:56:54;;;;;;;1.58;0.50;;;20.60;25.00;21.10;93633.00;;;;10382131;28;45444;-60
2021/12/03 09:01:54;;;;;;;2.17;0.50;;;20.60;25.00;21.10;93638.00;;;;10381140;28;45185;-61
2021/12/03 09:06:57;;;;;;;1.92;0.40;;;20.60;25.00;21.10;93635.00;;;;10380063;28;47149;-61
2021/12/03 09:11:58;;;;;;;1.65;0.30;;;20.60;25.00;21.10;93653.00;;;;10406569;28;47041;-59
2021/12/03 09:22:08;;;;;;;0.55;0.28;;;20.60;25.00;21.20;93658.00;;;;10381901;28;46002;-60
2021/12/03 09:27:08;;;;;;;1.17;0.35;;;20.70;25.00;21.20;93654.00;;;;10361727;28;48057;-59
2021/12/03 09:32:09;;;;;;;2.38;0.50;;;20.70;25.00;21.20;93653.00;;;;10379873;28;45306;-61
2021/12/03 09:37:10;;;;;;;2.28;0.50;;;20.70;25.00;21.10;93656.00;;;;10378001;28;45298;-60
2021/12/03 09:42:12;;;;;;;0.90;0.20;;;20.60;25.00;21.10;93641.00;;;;10397083;28;46225;-60
2021/12/03 09:47:14;;;;;;;1.55;0.30;;;20.60;24.90;21.10;93654.00;;;;10379686;28;46248;-58
2021/12/03 09:52:24;;;;;;;0.40;0.30;;;20.60;24.80;21.10;93666.00;;;;10379935;28;45440;-61
2021/12/03 10:09:45;;;;;;;0.82;0.40;;;20.60;24.70;21.10;93668.00;;;;10383475;28;45216;-59
2021/12/03 10:14:23;;;;;;;0.60;0.20;;;20.60;24.80;21.10;93658.00;;;;10382877;28;45217;-59
2021/12/03 10:19:34;;;;;;;1.40;0.30;;;20.60;24.80;21.20;93667.00;;;;10400660;28;47016;-58
2021/12/03 10:51:34;;;;;;;0.88;0.32;;;20.60;24.80;21.20;93629.00;;;;10386412;28;45216;-61
2021/12/03 11:07:14;;;;;;;1.63;0.40;;;20.70;24.80;21.20;93640.00;;;;10419008;28;45663;-60
2021/12/03 11:18:34;;;;;;;0.90;0.20;;;20.70;24.80;21.10;93633.00;;;;10380151;28;45653;-59
2021/12/03 11:34:53;;;;;;;1.15;0.40;;;20.70;25.40;21.20;93627.00;;;;10380879;28;45691;-60
2021/12/03 12:12:09;;;;;;;0.82;0.32;;;20.70;25.30;21.30;93580.00;;;;10394338;28;45218;-61
2021/12/03 12:44:09;;;;;;;2.05;0.30;;;20.90;26.60;21.40;93549.00;;;;10393091;28;45527;-61
2021/12/03 13:21:12;;;;;;;0.57;0.22;;;20.90;26.90;21.50;93524.00;;;;10356657;28;45221;-60
2021/12/03 14:51:46;;;;;;;0.40;0.27;;;21.00;27.30;21.60;93479.00;;;;10419177;28;45226;-60
2021/12/03 14:56:16;;;;;;;0.60;0.35;;;21.10;27.30;21.60;93502.00;;;;10340186;28;45931;-57
2021/12/03 15:06:33;;;;;;;0.90;0.32;;;21.10;27.30;21.60;93486.00;;;;10418853;28;45215;-60
2021/12/03 15:54:33;;;;;;;2.50;0.50;;;21.10;26.80;21.50;93474.00;;;;10435293;28;45362;-59
2021/12/03 16:04:12;;;;;;;1.05;0.40;;;21.00;26.90;21.50;93455.00;;;;10419346;28;45490;-59
2021/12/03 16:14:53;;;;;;;1.33;0.60;;;20.90;26.90;21.40;93444.00;;;;10389733;28;45421;-59
2021/12/03 16:43:40;;;;;;;3.15;1.10;;;20.90;26.50;21.40;93431.00;;;;10421033;28;45160;-60
2021/12/03 16:52:02;;;;;;;1.95;1.40;;;20.80;26.00;21.30;93433.00;;;;10441678;28;45791;-60
2021/12/03 16:57:03;;;;;;;2.33;1.33;;;20.80;25.90;21.30;93414.00;;;;10440707;28;45287;-60
2021/12/03 17:02:08;;;;;;;2.58;1.50;;;20.80;25.80;21.30;93428.00;;;;10423187;28;45195;-60
2021/12/03 17:54:59;;;;;;;2.00;1.25;;;20.70;25.10;21.20;93365.00;;;;10382597;28;46049;-60
2021/12/03 18:00:05;;;;;;;1.95;1.20;;;20.70;25.10;21.20;93335.00;;;;10365271;28;47784;-60
2021/12/03 18:43:18;;;;;;;3.33;1.48;;;20.80;25.00;21.20;93352.00;;;;10438003;28;45767;-60
2021/12/03 18:58:09;;;;;;;2.55;1.40;;;20.70;25.10;21.10;93272.00;;;;10377878;28;45205;-60
2021/12/03 19:13:38;;;;;;;3.05;1.77;;;20.60;22.90;20.80;93269.00;;;;10354514;28;45233;-60
2021/12/03 19:18:44;;;;;;;2.05;1.40;;;20.50;22.60;20.80;93265.00;;;;10406947;28;46034;-60
2021/12/03 19:23:45;;;;;;;2.83;1.38;;;20.40;23.50;20.90;93270.00;;;;10377898;28;46680;-60
2021/12/03 19:28:49;;;;;;;2.13;1.30;;;20.40;23.60;20.90;93247.00;;;;10376478;28;45152;-61
2021/12/03 19:33:50;;;;;;;2.28;1.40;;;20.50;23.80;20.90;93231.00;;;;10393712;28;47047;-60
2021/12/03 19:38:56;;;;;;;3.35;1.50;;;20.50;23.90;21.00;93235.00;;;;10376440;28;45334;-61
2021/12/03 19:43:59;;;;;;;1.00;0.90;;;20.50;23.90;21.00;93215.00;;;;10375710;28;46537;-61
2021/12/03 19:54:01;;;;;;;2.00;1.05;;;20.50;24.00;21.00;93217.00;;;;10375484;28;45235;-60
2021/12/03 19:59:03;;;;;;;2.60;1.00;;;20.60;24.10;21.00;93212.00;;;;10393426;28;46217;-61
2021/12/03 20:04:07;;;;;;;1.75;0.85;;;20.50;24.90;21.00;93205.00;;;;10376315;28;45454;-62
2021/12/03 20:09:12;;;;;;;1.40;1.00;;;20.60;24.70;21.00;93186.00;;;;10376048;28;45467;-61
